Time;durP1;ratioP1;P1;durP2;ratioP2;P2;SDS_P1;SDS_P2;PMS_P1;PMS_P2;Temp;Humidity;BMP_temperature;BMP_pressure;BME280_temperature;BME280_humidity;BME280_pressure;Samples;Min_cycle;Max_cycle;Signal;HPM_P1;HPM_P2
2023/12/29 00:00:49;;;;;;;;;;;8.50;99.90;;;7.86;100.00;97732.16;5016710;28;2153;-70
2023/12/29 00:03:16;;;;;;;;;;;8.50;99.90;;;7.95;100.00;97742.22;5018152;28;1414;-69
2023/12/29 00:05:43;;;;;;;;;;;8.50;99.90;;;7.98;100.00;97728.38;5023457;28;1336;-71
2023/12/29 00:08:10;;;;;;;;;;;8.50;99.90;;;7.83;100.00;97713.34;5019643;28;1627;-70
2023/12/29 00:10:36;;;;;;;;;;;8.50;99.90;;;7.82;100.00;97702.13;5019905;28;1456;-69
2023/12/29 00:13:03;;;;;;;;;;;8.50;99.90;;;7.83;100.00;97714.16;5021785;28;1913;-70
2023/12/29 00:15:31;;;;;;;;;;;8.40;99.90;;;7.94;100.00;97747.47;5022646;28;2047;-70
2023/12/29 00:17:57;;;;;;;;;;;8.50;99.90;;;7.88;100.00;97721.78;5020383;28;1368;-70
2023/12/29 00:20:25;;;;;;;;;;;8.50;99.90;;;7.99;100.00;97718.91;5021675;28;1725;-70
2023/12/29 00:23:06;;;;;;;;;;;8.50;99.90;;;7.94;100.00;97698.34;5018415;28;1472;-70
2023/12/29 00:25:37;;;;;;;;;;;8.50;99.90;;;7.82;100.00;97714.22;5017553;28;1431;-69
2023/12/29 00:28:06;;;;;;;;;;;8.50;99.90;;;7.97;100.00;97722.34;5020990;28;3355;-71
2023/12/29 00:30:43;;;;;;;;;;;8.60;99.90;;;7.97;100.00;97718.94;5018691;28;1431;-71
2023/12/29 00:33:26;;;;;;;;;;;8.50;99.90;;;8.00;100.00;97723.16;5017926;28;1989;-70
2023/12/29 00:35:54;;;;;;;;;;;8.50;99.90;;;7.83;100.00;97713.34;5018516;28;1599;-70
2023/12/29 00:38:20;;;;;;;;;;;8.50;99.90;;;7.91;100.00;97740.66;5020577;28;1451;-69
2023/12/29 00:40:47;;;;;;;;;;;8.40;99.90;;;7.89;100.00;97718.28;5018543;28;1352;-70
2023/12/29 00:43:14;;;;;;;;;;;8.50;99.90;;;7.93;100.00;97735.41;5015277;28;1427;-71
2023/12/29 00:45:41;;;;;;;;;;;8.50;99.90;;;7.98;100.00;97728.38;5020196;28;1518;-70
2023/12/29 00:48:09;;;;;;;;;;;8.60;99.90;;;8.04;100.00;97714.44;5022732;28;1387;-70
2023/12/29 00:50:36;;;;;;;;;;;8.50;99.90;;;7.81;100.00;97695.28;5019724;28;1500;-70
2023/12/29 00:53:03;;;;;;;;;;;8.50;99.90;;;7.80;100.00;97674.63;5019459;28;1464;-69
2023/12/29 00:55:33;;;;;;;;;;;8.50;99.90;;;7.91;100.00;97681.22;5021821;28;1911;-70
2023/12/29 00:58:00;;;;;;;;;;;8.50;99.90;;;7.84;100.00;97689.16;5021886;28;5063;-70
2023/12/29 01:00:27;;;;;;;;;;;8.40;99.90;;;7.97;100.00;97695.66;5020957;28;1432;-70
2023/12/29 01:02:54;;;;;;;;;;;8.50;99.90;;;7.95;100.00;97712.97;5017552;28;1478;-69
2023/12/29 01:05:21;;;;;;;;;;;8.50;99.90;;;7.84;100.00;97684.00;5004992;28;1403;-70
2023/12/29 01:07:48;;;;;;;;;;;8.40;99.90;;;7.79;100.00;97689.31;5020933;28;1395;-70
2023/12/29 01:10:15;;;;;;;;;;;8.50;99.90;;;7.80;100.00;97692.72;5019428;28;3286;-69
2023/12/29 01:12:42;;;;;;;;;;;8.40;99.90;;;7.84;100.00;97708.09;5019306;28;1366;-70
2023/12/29 01:15:09;;;;;;;;;;;8.40;99.90;;;7.75;100.00;97705.78;5018055;28;1899;-70
2023/12/29 01:17:36;;;;;;;;;;;8.40;99.90;;;7.79;100.00;97714.31;5017810;28;1607;-70
2023/12/29 01:20:04;;;;;;;;;;;8.40;99.90;;;7.83;100.00;97716.75;5016656;28;1420;-70
2023/12/29 01:22:31;;;;;;;;;;;8.40;99.90;;;7.79;100.00;97691.06;5018526;28;1572;-69
2023/12/29 01:24:59;;;;;;;;;;;8.40;99.90;;;7.74;100.00;97686.84;5015925;28;2126;-70
2023/12/29 01:27:27;;;;;;;;;;;8.40;99.90;;;7.72;100.00;97700.72;5033396;28;1370;-70
2023/12/29 01:29:54;;;;;;;;;;;8.40;99.90;;;7.86;100.00;97685.63;5016935;28;1403;-69
2023/12/29 01:32:21;;;;;;;;;;;8.40;99.90;;;7.83;100.00;97697.81;5016568;28;1471;-70
2023/12/29 01:34:54;;;;;;;;;;;8.40;99.90;;;7.77;100.00;97692.81;5021950;28;1926;-70
2023/12/29 01:37:21;;;;;;;;;;;8.40;99.90;;;7.77;100.00;97683.34;5017121;28;1392;-69
2023/12/29 01:39:48;;;;;;;;;;;8.40;99.90;;;7.89;100.00;97693.31;5020355;28;1879;-69
2023/12/29 01:42:15;;;;;;;;;;;8.40;99.90;;;7.82;100.00;97678.03;5019884;28;1411;-71
2023/12/29 01:44:43;;;;;;;;;;;8.50;99.90;;;7.83;100.00;97679.75;5019748;28;1371;-70
2023/12/29 01:47:14;;;;;;;;;;;8.40;99.90;;;7.73;100.00;97682.59;5019252;28;1425;-70
2023/12/29 01:49:41;;;;;;;;;;;8.40;99.90;;;7.79;100.00;97696.22;5018371;28;1399;-70
2023/12/29 01:52:08;;;;;;;;;;;8.50;99.90;;;7.84;100.00;97651.25;5002040;28;3322;-69
2023/12/29 01:54:37;;;;;;;;;;;8.40;99.90;;;7.83;100.00;97683.16;5018623;28;1911;-70
2023/12/29 01:57:05;;;;;;;;;;;8.50;99.90;;;7.90;100.00;97692.41;5017375;28;5128;-70
2023/12/29 01:59:32;;;;;;;;;;;8.50;99.90;;;7.81;100.00;97694.44;5017495;28;1454;-70
2023/12/29 02:01:59;;;;;;;;;;;8.50;99.90;;;7.76;100.00;97692.00;5032667;28;1386;-70
2023/12/29 02:04:27;;;;;;;;;;;8.50;99.90;;;7.77;100.00;97685.06;5017714;28;1289;-69
2023/12/29 02:06:55;;;;;;;;;;;8.40;99.90;;;7.84;100.00;97684.00;5019748;28;2032;-70
2023/12/29 02:09:22;;;;;;;;;;;8.40;99.90;;;7.68;100.00;97692.19;5019090;28;1644;-69
2023/12/29 02:11:49;;;;;;;;;;;8.40;99.90;;;7.96;100.00;97686.22;5036682;28;1387;-70
2023/12/29 02:14:16;;;;;;;;;;;8.50;99.90;;;7.83;100.00;97672.81;5021340;28;1899;-70
2023/12/29 02:17:11;;;;;;;;;;;8.50;99.90;;;7.88;100.00;97685.59;5022071;28;1335;-70
2023/12/29 02:19:40;;;;;;;;;;;8.50;99.90;;;7.83;100.00;97670.25;5013610;28;1768;-70
2023/12/29 02:22:08;;;;;;;;;;;8.50;99.90;;;7.73;100.00;97682.59;5021338;28;2193;-71
2023/12/29 02:24:36;;;;;;;;;;;8.40;99.90;;;7.88;100.00;97680.44;5019908;28;1361;-70
2023/12/29 02:27:42;;;;;;;;;;;8.40;99.90;;;7.84;100.00;97681.41;5017843;28;1371;-70
2023/12/29 02:30:11;;;;;;;;;;;8.40;99.90;;;7.82;100.00;97690.94;5019696;28;1504;-70
2023/12/29 02:32:41;;;;;;;;;;;8.40;99.90;;;7.71;100.00;97671.47;5017869;28;1387;-69
2023/12/29 02:35:15;;;;;;;;;;;8.40;99.90;;;7.97;100.00;97682.75;5005174;28;1993;-70
2023/12/29 02:37:42;;;;;;;;;;;8.40;99.90;;;7.83;100.00;97674.56;5033860;28;1330;-70
2023/12/29 02:40:10;;;;;;;;;;;8.40;99.90;;;7.78;100.00;97676.41;5023451;28;1356;-70
2023/12/29 02:42:37;;;;;;;;;;;8.40;99.90;;;7.77;100.00;97679.91;5017252;28;1518;-70
2023/12/29 02:45:04;;;;;;;;;;;8.40;99.90;;;7.82;100.00;97678.88;5021052;28;1271;-71
2023/12/29 02:47:31;;;;;;;;;;;8.40;99.90;;;7.79;100.00;97670.38;5021383;28;1605;-70
2023/12/29 02:49:58;;;;;;;;;;;8.40;99.90;;;7.75;100.00;97683.41;5023371;28;2975;-70
2023/12/29 02:52:25;;;;;;;;;;;8.50;99.90;;;7.75;100.00;97690.28;5024455;28;1414;-71
2023/12/29 02:54:52;;;;;;;;;;;8.40;99.90;;;7.73;100.00;97671.38;5023511;28;1981;-71
2023/12/29 02:57:19;;;;;;;;;;;8.40;99.90;;;7.90;100.00;97687.25;5022636;28;5219;-70
2023/12/29 02:59:45;;;;;;;;;;;8.40;99.90;;;7.81;100.00;97684.09;5023528;28;1139;-70
2023/12/29 03:02:12;;;;;;;;;;;8.40;99.90;;;7.87;100.00;97687.34;5022706;28;1308;-70
2023/12/29 03:04:39;;;;;;;;;;;8.40;99.90;;;7.87;100.00;97676.19;5037953;28;2346;-70
2023/12/29 03:07:06;;;;;;;;;;;8.50;99.90;;;7.79;100.00;97685.88;5021210;28;1493;-69
2023/12/29 03:09:33;;;;;;;;;;;8.40;99.90;;;7.79;100.00;97699.66;5023396;28;1510;-70
2023/12/29 03:12:01;;;;;;;;;;;8.40;99.90;;;7.81;100.00;97695.28;5023166;28;1407;-71
2023/12/29 03:14:28;;;;;;;;;;;8.40;99.90;;;7.89;100.00;97693.31;5023547;28;1922;-71
2023/12/29 03:16:54;;;;;;;;;;;8.40;99.90;;;7.91;100.00;97698.44;5021064;28;2016;-71
2023/12/29 03:19:21;;;;;;;;;;;8.40;99.90;;;7.71;100.00;97681.78;5020484;28;1392;-71
2023/12/29 03:21:48;;;;;;;;;;;8.40;99.90;;;7.90;100.00;97702.75;5025167;28;2075;-70
2023/12/29 03:24:15;;;;;;;;;;;8.40;99.90;;;7.99;100.00;97709.41;5024456;28;1296;-71
2023/12/29 03:26:42;;;;;;;;;;;8.40;99.90;;;7.86;100.00;97679.63;5025502;28;1439;-71
2023/12/29 03:29:11;;;;;;;;;;;8.40;99.90;;;7.72;100.00;97670.56;5021823;28;1378;-70
2023/12/29 03:31:39;;;;;;;;;;;8.40;99.90;;;7.81;100.00;97671.19;5008781;28;3131;-70
2023/12/29 03:34:06;;;;;;;;;;;8.40;99.90;;;7.75;100.00;97677.38;5022845;28;1907;-70
2023/12/29 03:36:34;;;;;;;;;;;8.40;99.90;;;7.80;100.00;97665.19;5024265;28;1251;-71
2023/12/29 03:39:02;;;;;;;;;;;8.40;99.90;;;7.71;100.00;97686.13;5020700;28;1148;-71
2023/12/29 03:41:29;;;;;;;;;;;8.30;99.90;;;7.61;100.00;97680.34;5021626;28;1373;-70
2023/12/29 03:43:56;;;;;;;;;;;8.40;99.90;;;7.63;100.00;97685.47;5019540;28;1402;-71
2023/12/29 03:46:23;;;;;;;;;;;8.30;99.90;;;7.77;100.00;97679.91;5022365;28;2003;-68
2023/12/29 03:48:50;;;;;;;;;;;8.30;99.90;;;7.71;100.00;97675.78;5020680;28;1292;-70
2023/12/29 03:51:18;;;;;;;;;;;8.40;99.90;;;7.66;100.00;97691.41;5020717;28;1407;-71
2023/12/29 03:53:44;;;;;;;;;;;8.40;99.90;;;7.70;100.00;97685.25;5035028;28;1446;-70
2023/12/29 03:59:41;;;;;;;;;;;8.40;99.90;;;7.77;100.00;97691.09;5001929;28;2092;-71
2023/12/29 04:02:08;;;;;;;;;;;8.40;99.90;;;7.77;100.00;97687.66;5022391;28;1392;-71
2023/12/29 04:04:38;;;;;;;;;;;8.30;99.90;;;7.71;100.00;97686.97;5035663;28;1307;-70
2023/12/29 04:07:06;;;;;;;;;;;8.30;99.90;;;7.74;100.00;97671.34;5020995;28;1375;-71
2023/12/29 04:09:32;;;;;;;;;;;8.30;99.90;;;7.65;100.00;97653.53;5021543;28;1293;-71
2023/12/29 04:11:59;;;;;;;;;;;8.30;99.90;;;7.61;100.00;97662.28;5021090;28;1502;-70
2023/12/29 04:14:26;;;;;;;;;;;8.30;99.90;;;7.70;100.00;97662.00;5022905;28;3144;-71
2023/12/29 04:16:53;;;;;;;;;;;8.40;99.90;;;7.72;100.00;97673.13;5020423;28;1208;-71
2023/12/29 04:19:20;;;;;;;;;;;8.40;99.90;;;7.66;100.00;97668.16;5023280;28;1610;-71
2023/12/29 04:21:47;;;;;;;;;;;8.40;99.90;;;7.63;100.00;97677.72;5021930;28;1373;-71
2023/12/29 04:24:14;;;;;;;;;;;8.40;99.90;;;7.79;100.00;97660.03;5019390;28;1280;-70
2023/12/29 04:26:41;;;;;;;;;;;8.40;99.90;;;7.80;100.00;97685.84;5020148;28;1374;-70
2023/12/29 04:29:08;;;;;;;;;;;8.30;99.90;;;7.81;100.00;97678.94;5022894;28;1384;-70
2023/12/29 04:31:35;;;;;;;;;;;8.30;99.90;;;7.73;100.00;97674.84;5021983;28;1101;-71
2023/12/29 04:34:01;;;;;;;;;;;8.40;99.90;;;7.71;100.00;97686.13;5024457;28;1252;-70
2023/12/29 04:36:28;;;;;;;;;;;8.50;99.90;;;7.80;100.00;97687.56;5024521;28;2032;-71
2023/12/29 04:38:55;;;;;;;;;;;8.40;99.90;;;7.85;100.00;97690.88;5019626;28;1335;-70
2023/12/29 04:41:22;;;;;;;;;;;8.40;99.90;;;7.74;100.00;97665.34;5022556;28;2047;-71
2023/12/29 04:44:45;;;;;;;;;;;8.40;99.90;;;7.78;100.00;97684.16;5022448;28;1457;-71
2023/12/29 04:47:12;;;;;;;;;;;8.40;99.90;;;7.81;100.00;97681.53;5021892;28;1339;-71
2023/12/29 04:49:39;;;;;;;;;;;8.40;99.90;;;7.75;100.00;97685.97;5019630;28;1244;-71
2023/12/29 04:52:06;;;;;;;;;;;8.40;99.90;;;7.78;100.00;97677.28;5019883;28;1767;-71
2023/12/29 04:54:33;;;;;;;;;;;8.50;99.90;;;7.79;100.00;97704.81;5021722;28;1910;-72
2023/12/29 04:57:00;;;;;;;;;;;8.40;99.90;;;7.95;100.00;97694.88;5021447;28;3089;-71
2023/12/29 04:59:27;;;;;;;;;;;8.40;99.90;;;7.95;100.00;97689.69;5021584;28;1318;-71
2023/12/29 05:01:53;;;;;;;;;;;8.50;99.90;;;8.00;100.00;97686.97;5021810;28;1367;-70
2023/12/29 05:04:20;;;;;;;;;;;8.40;99.90;;;7.94;100.00;97675.09;5022313;28;1348;-71
2023/12/29 05:06:47;;;;;;;;;;;8.50;99.90;;;7.82;100.00;97668.53;5023272;28;1331;-71
2023/12/29 05:09:14;;;;;;;;;;;8.50;99.90;;;7.75;100.00;97693.75;5020708;28;1909;-70
2023/12/29 05:11:41;;;;;;;;;;;8.50;99.90;;;7.83;100.00;97687.50;5018366;28;1400;-71
2023/12/29 05:14:08;;;;;;;;;;;8.40;99.90;;;7.88;100.00;97693.38;5021913;28;1379;-70
2023/12/29 05:16:35;;;;;;;;;;;8.40;99.90;;;7.84;100.00;97684.00;5022738;28;1902;-71
2023/12/29 05:19:02;;;;;;;;;;;8.40;99.90;;;7.70;100.00;97664.56;5024631;28;1254;-71
2023/12/29 05:21:30;;;;;;;;;;;8.40;99.90;;;7.91;100.00;97681.22;5020585;28;1412;-71
2023/12/29 05:23:57;;;;;;;;;;;8.50;99.90;;;7.84;100.00;97686.59;5021992;28;1991;-70
2023/12/29 05:26:24;;;;;;;;;;;8.40;99.90;;;7.76;100.00;97686.81;5025044;28;1742;-71
2023/12/29 05:28:51;;;;;;;;;;;8.40;99.90;;;7.79;100.00;97685.88;5019854;28;1415;-70
2023/12/29 05:31:18;;;;;;;;;;;8.40;99.90;;;7.83;100.00;97690.91;5022430;28;1420;-71
2023/12/29 05:33:45;;;;;;;;;;;8.40;99.90;;;7.87;100.00;97691.69;5016549;28;1336;-68
2023/12/29 05:36:12;;;;;;;;;;;8.40;99.90;;;7.86;100.00;97685.63;5019020;28;1902;-71
2023/12/29 05:38:41;;;;;;;;;;;8.50;99.90;;;7.81;100.00;97686.69;5018369;28;3184;-71
2023/12/29 05:41:08;;;;;;;;;;;8.50;99.90;;;7.86;100.00;97683.06;5018999;28;1410;-71
2023/12/29 05:43:35;;;;;;;;;;;8.40;99.90;;;7.82;100.00;97670.28;5020656;28;1409;-71
2023/12/29 05:46:02;;;;;;;;;;;8.50;99.90;;;7.76;100.00;97666.16;5005046;28;1143;-71
2023/12/29 05:48:29;;;;;;;;;;;8.40;99.90;;;7.67;100.00;97675.03;5019965;28;1332;-71
2023/12/29 05:50:56;;;;;;;;;;;8.40;99.90;;;7.74;100.00;97655.00;5018068;28;1376;-70
2023/12/29 05:53:23;;;;;;;;;;;8.40;99.90;;;7.71;100.00;97680.94;5019440;28;2380;-70
2023/12/29 05:55:52;;;;;;;;;;;8.40;99.90;;;7.75;100.00;97649.81;5016148;28;2023;-71
2023/12/29 05:58:19;;;;;;;;;;;8.40;99.90;;;7.75;100.00;97674.78;5020592;28;5170;-71
2023/12/29 06:00:46;;;;;;;;;;;8.50;99.90;;;7.84;100.00;97674.50;5022024;28;1556;-70
2023/12/29 06:03:14;;;;;;;;;;;8.40;99.90;;;7.76;100.00;97679.06;5019901;28;1372;-71
2023/12/29 06:05:41;;;;;;;;;;;8.40;99.90;;;7.76;100.00;97692.00;5017248;28;2068;-71
2023/12/29 06:08:09;;;;;;;;;;;8.30;99.90;;;7.83;100.00;97677.16;5008757;28;1122;-71
2023/12/29 06:10:36;;;;;;;;;;;8.40;99.90;;;7.76;100.00;97692.00;5020920;28;1470;-71
2023/12/29 06:13:03;;;;;;;;;;;8.30;99.90;;;7.90;100.00;97692.41;5022595;28;2108;-71
2023/12/29 06:15:30;;;;;;;;;;;8.30;99.90;;;7.79;100.00;97688.47;5019701;28;2237;-71
2023/12/29 06:17:58;;;;;;;;;;;8.30;99.90;;;7.70;100.00;97682.66;5018886;28;1448;-71
2023/12/29 06:20:25;;;;;;;;;;;8.40;99.90;;;7.69;100.00;97672.41;5021012;28;3315;-70
2023/12/29 06:22:52;;;;;;;;;;;8.40;99.90;;;7.68;100.00;97693.94;5018043;28;1410;-70
2023/12/29 06:25:19;;;;;;;;;;;8.40;99.90;;;7.65;100.00;97691.47;5024093;28;1117;-72
2023/12/29 06:27:46;;;;;;;;;;;8.30;99.90;;;7.61;100.00;97664.00;5023203;28;1289;-70
2023/12/29 06:30:13;;;;;;;;;;;8.30;99.90;;;7.64;100.00;97676.81;5025731;28;1228;-70
2023/12/29 06:32:40;;;;;;;;;;;8.30;99.90;;;7.76;100.00;97702.31;5020930;28;1387;-70
2023/12/29 06:35:09;;;;;;;;;;;8.30;99.90;;;7.69;100.00;97698.22;5022270;28;2047;-70
2023/12/29 06:37:38;;;;;;;;;;;8.30;99.90;;;7.60;100.00;97681.25;5024926;28;1511;-70
2023/12/29 06:40:06;;;;;;;;;;;8.30;99.90;;;7.67;100.00;97662.09;5040429;28;1295;-70
2023/12/29 06:42:33;;;;;;;;;;;8.30;99.90;;;7.60;100.00;97691.59;5022586;28;1586;-70
2023/12/29 06:45:01;;;;;;;;;;;8.30;99.90;;;7.57;100.00;97662.41;5023534;28;1349;-71
2023/12/29 06:47:28;;;;;;;;;;;8.30;99.90;;;7.53;100.00;97672.84;5023645;28;1601;-70
2023/12/29 06:49:55;;;;;;;;;;;8.20;99.90;;;7.64;100.00;97687.16;5026738;28;1361;-71
2023/12/29 06:52:22;;;;;;;;;;;8.20;99.90;;;7.66;100.00;97680.22;5022989;28;1391;-70
2023/12/29 06:54:49;;;;;;;;;;;8.20;99.90;;;7.63;100.00;97670.81;5022541;28;1907;-70
2023/12/29 06:57:16;;;;;;;;;;;8.30;99.90;;;7.57;100.00;97652.91;5024137;28;5155;-71
2023/12/29 06:59:43;;;;;;;;;;;8.30;99.90;;;7.63;100.00;97639.81;5038874;28;1398;-71
2023/12/29 07:02:10;;;;;;;;;;;8.30;99.90;;;7.63;100.00;97657.91;5024079;28;3301;-71
2023/12/29 07:04:41;;;;;;;;;;;8.30;99.90;;;7.75;100.00;97678.22;5022023;28;1350;-70
2023/12/29 07:07:08;;;;;;;;;;;8.30;99.90;;;7.72;100.00;97669.72;5023418;28;1414;-71
2023/12/29 07:09:39;;;;;;;;;;;8.20;99.90;;;7.65;100.00;97666.47;5024558;28;1252;-69
2023/12/29 07:12:06;;;;;;;;;;;8.30;99.90;;;7.66;100.00;97652.66;5019053;28;1303;-70
2023/12/29 07:14:35;;;;;;;;;;;8.30;99.90;;;7.69;100.00;97657.72;5025923;28;1459;-70
2023/12/29 07:17:03;;;;;;;;;;;8.30;99.90;;;7.72;100.00;97660.22;5023685;28;2043;-70
2023/12/29 07:19:36;;;;;;;;;;;8.30;99.90;;;7.69;100.00;97660.31;5021231;28;2304;-70
2023/12/29 07:22:05;;;;;;;;;;;8.30;99.90;;;7.66;100.00;97683.66;5024221;28;1434;-70
2023/12/29 07:24:34;;;;;;;;;;;8.30;99.90;;;7.64;100.00;97667.38;5040982;28;1463;-70
2023/12/29 07:27:02;;;;;;;;;;;8.30;99.90;;;7.82;100.00;97657.34;5023218;28;1351;-71
2023/12/29 07:29:29;;;;;;;;;;;8.30;99.90;;;7.69;100.00;97652.56;5039649;28;1307;-70
2023/12/29 07:31:55;;;;;;;;;;;8.30;99.90;;;7.66;100.00;97660.41;5021826;28;2375;-70
2023/12/29 07:34:22;;;;;;;;;;;8.40;99.90;;;7.80;100.00;97672.06;5019399;28;1457;-70
2023/12/29 07:36:49;;;;;;;;;;;8.30;99.90;;;7.81;100.00;97666.84;5017957;28;1975;-71
2023/12/29 07:39:17;;;;;;;;;;;8.30;99.90;;;7.74;100.00;97686.03;5023869;28;1264;-71
2023/12/29 07:41:44;;;;;;;;;;;8.30;99.90;;;7.72;100.00;97691.22;5028246;28;1537;-71
2023/12/29 07:44:12;;;;;;;;;;;8.40;99.90;;;7.72;100.00;97680.88;5024952;28;3077;-70
2023/12/29 07:46:40;;;;;;;;;;;8.40;99.90;;;7.67;100.00;97692.25;5021983;28;1423;-70
2023/12/29 07:49:07;;;;;;;;;;;8.40;99.90;;;7.71;100.00;97689.53;5026260;28;1145;-70
2023/12/29 07:51:41;;;;;;;;;;;8.30;99.90;;;7.66;100.00;97683.66;5020222;28;1481;-70
2023/12/29 07:54:09;;;;;;;;;;;8.40;99.90;;;7.71;100.00;97697.28;5020589;28;1351;-75
2023/12/29 07:56:37;;;;;;;;;;;8.40;99.90;;;7.73;100.00;97716.19;5021714;28;5143;-70
2023/12/29 07:59:04;;;;;;;;;;;8.40;99.90;;;7.83;100.00;97709.00;5024014;28;2066;-70
2023/12/29 08:01:31;;;;;;;;;;;8.40;99.90;;;7.77;100.00;97703.16;5020677;28;1218;-70
2023/12/29 08:03:58;;;;;;;;;;;8.40;99.90;;;7.86;100.00;97718.41;5021494;28;1379;-70
2023/12/29 08:06:26;;;;;;;;;;;8.40;99.90;;;7.91;100.00;97708.75;5021276;28;1174;-70
2023/12/29 08:08:54;;;;;;;;;;;8.40;99.90;;;8.04;100.00;97717.84;5021372;28;1417;-70
2023/12/29 08:11:21;;;;;;;;;;;8.50;99.90;;;7.94;100.00;97721.63;5022027;28;1363;-71
2023/12/29 08:13:49;;;;;;;;;;;8.50;99.90;;;7.88;100.00;97720.03;5018504;28;1888;-70
2023/12/29 08:16:19;;;;;;;;;;;8.50;99.90;;;7.86;100.00;97705.47;5023517;28;1879;-70
2023/12/29 08:18:48;;;;;;;;;;;8.50;99.90;;;7.89;100.00;97711.41;5023304;28;1522;-70
2023/12/29 08:21:19;;;;;;;;;;;8.50;99.90;;;7.93;100.00;97728.50;5036950;28;1169;-70
2023/12/29 08:23:46;;;;;;;;;;;8.50;99.90;;;7.97;100.00;97712.00;5021917;28;1502;-70
2023/12/29 08:26:14;;;;;;;;;;;8.60;99.90;;;7.96;100.00;97725.84;5021276;28;3173;-70
2023/12/29 08:28:40;;;;;;;;;;;8.60;99.90;;;8.08;100.00;97729.78;5020830;28;1340;-70
2023/12/29 08:31:08;;;;;;;;;;;8.60;99.90;;;7.95;100.00;97712.97;5022126;28;1264;-69
2023/12/29 08:33:35;;;;;;;;;;;8.70;99.90;;;7.98;100.00;97712.84;5021293;28;1415;-70
2023/12/29 08:36:03;;;;;;;;;;;8.70;99.90;;;7.96;100.00;97733.59;5021137;28;1968;-70
2023/12/29 08:38:33;;;;;;;;;;;8.70;99.90;;;7.97;100.00;97740.44;5019479;28;1134;-70
2023/12/29 08:41:00;;;;;;;;;;;8.70;99.90;;;8.09;100.00;97730.63;5021075;28;1955;-70
2023/12/29 08:43:27;;;;;;;;;;;8.60;99.90;;;8.09;100.00;97731.47;5017842;28;1419;-70
2023/12/29 08:45:54;;;;;;;;;;;8.70;99.90;;;8.09;100.00;97705.63;5022282;28;1435;-71
2023/12/29 08:48:21;;;;;;;;;;;8.70;99.90;;;8.08;100.00;97737.56;5020162;28;1168;-70
2023/12/29 08:50:49;;;;;;;;;;;8.60;99.90;;;8.21;100.00;97739.75;5019146;28;1321;-70
2023/12/29 08:53:17;;;;;;;;;;;8.70;99.90;;;8.16;100.00;97717.50;5022811;28;1419;-71
2023/12/29 08:55:44;;;;;;;;;;;8.80;99.90;;;8.28;100.00;97723.16;5037615;28;1931;-70
2023/12/29 08:58:12;;;;;;;;;;;8.70;99.90;;;8.24;100.00;97729.34;5018599;28;5119;-70
2023/12/29 09:00:42;;;;;;;;;;;8.70;99.90;;;8.31;100.00;97728.25;5036794;28;1307;-71
2023/12/29 09:03:09;;;;;;;;;;;8.80;99.90;;;8.31;100.00;97712.72;5020868;28;1419;-69
2023/12/29 09:05:36;;;;;;;;;;;8.80;99.90;;;8.18;100.00;97695.00;5019344;28;1420;-69
2023/12/29 09:08:04;;;;;;;;;;;8.80;99.90;;;8.30;100.00;97731.72;5022296;28;3165;-69
2023/12/29 09:10:31;;;;;;;;;;;8.80;99.90;;;8.16;100.00;97720.09;5004687;28;1410;-68
2023/12/29 09:12:58;;;;;;;;;;;8.80;99.90;;;8.13;100.00;97709.81;5018983;28;1304;-69
2023/12/29 09:15:25;;;;;;;;;;;8.80;99.90;;;8.20;100.00;97719.97;5020495;28;1965;-70
2023/12/29 09:17:52;;;;;;;;;;;8.80;99.90;;;8.22;100.00;97720.78;5019712;28;1427;-70
2023/12/29 09:20:19;;;;;;;;;;;8.80;99.90;;;8.06;100.00;97721.25;5017562;28;1262;-69
2023/12/29 09:22:46;;;;;;;;;;;8.80;99.90;;;8.22;100.00;97744.06;5035416;28;1387;-69
2023/12/29 09:25:14;;;;;;;;;;;8.80;99.90;;;8.13;100.00;97727.06;5023230;28;2009;-70
2023/12/29 09:27:41;;;;;;;;;;;8.70;99.90;;;8.18;100.00;97720.84;5019293;28;1448;-71
2023/12/29 09:30:08;;;;;;;;;;;8.80;99.90;;;8.26;100.00;97712.88;5018822;28;1746;-71
2023/12/29 09:32:35;;;;;;;;;;;8.80;99.90;;;8.14;100.00;97711.53;5002277;28;1408;-75
2023/12/29 09:35:03;;;;;;;;;;;8.80;99.90;;;8.18;100.00;97720.84;5021406;28;1459;-71
2023/12/29 09:37:30;;;;;;;;;;;8.80;99.90;;;8.16;100.00;97716.63;5016906;28;2254;-70
2023/12/29 09:39:57;;;;;;;;;;;8.80;99.90;;;8.21;100.00;97732.00;5019266;28;1395;-70
2023/12/29 09:42:28;;;;;;;;;;;8.80;99.90;;;8.21;100.00;97719.94;5017689;28;1414;-71
2023/12/29 09:44:55;;;;;;;;;;;8.70;99.90;;;8.12;100.00;97717.63;5017937;28;1110;-70
2023/12/29 09:47:24;;;;;;;;;;;8.70;99.90;;;8.13;100.00;97732.25;5017351;28;1411;-70
2023/12/29 09:49:57;;;;;;;;;;;8.70;99.90;;;8.06;100.00;97708.31;5017486;28;1292;-71
2023/12/29 09:52:24;;;;;;;;;;;8.80;99.90;;;8.24;100.00;97719.00;5020061;28;3253;-71
2023/12/29 09:54:52;;;;;;;;;;;8.80;99.90;;;8.26;100.00;97723.22;5018421;28;1216;-70
2023/12/29 10:01:07;;;;;;;;;;;8.80;99.90;;;8.24;100.00;97729.34;5022846;28;1384;-70
2023/12/29 10:03:34;;;;;;;;;;;8.80;99.90;;;8.29;100.00;97748.13;5020520;28;1316;-70
2023/12/29 10:06:07;;;;;;;;;;;8.80;99.90;;;8.23;100.00;97710.38;5022737;28;2225;-70
2023/12/29 10:08:36;;;;;;;;;;;8.90;99.90;;;8.31;100.00;97718.75;5032360;28;1276;-71
2023/12/29 10:11:46;;;;;;;;;;;8.90;99.90;;;8.28;100.00;97724.03;5019077;28;1281;-70
2023/12/29 10:14:41;;;;;;;;;;;8.90;99.90;;;8.31;100.00;97726.50;5021845;28;1383;-70
2023/12/29 10:17:14;;;;;;;;;;;8.90;99.90;;;8.32;100.00;97722.16;5019294;28;1914;-70
2023/12/29 10:19:47;;;;;;;;;;;8.90;99.90;;;8.32;100.00;97691.13;5035673;28;2263;-71
2023/12/29 10:22:33;;;;;;;;;;;9.00;99.90;;;8.43;100.00;97722.72;5019181;28;1402;-70
2023/12/29 10:25:00;;;;;;;;;;;9.00;99.90;;;8.40;100.00;97683.16;5017756;28;1398;-70
2023/12/29 10:27:28;;;;;;;;;;;9.00;99.90;;;8.58;100.00;97701.53;5019739;28;1337;-70
2023/12/29 10:29:54;;;;;;;;;;;9.00;99.90;;;8.63;100.00;97693.63;5015088;28;1128;-70
2023/12/29 10:32:21;;;;;;;;;;;9.10;99.90;;;8.52;100.00;97660.34;5017598;28;1440;-70
2023/12/29 10:34:48;;;;;;;;;;;9.20;99.90;;;8.67;100.00;97650.38;5021062;28;1303;-71
2023/12/29 10:37:22;;;;;;;;;;;9.10;99.90;;;8.67;100.00;97676.25;5017803;28;1988;-70
2023/12/29 10:39:56;;;;;;;;;;;9.30;99.90;;;8.59;100.00;97664.41;5021811;28;1169;-70
2023/12/29 10:42:23;;;;;;;;;;;9.30;99.90;;;8.65;100.00;97680.63;5017225;28;1466;-71
2023/12/29 10:45:04;;;;;;;;;;;9.30;99.90;;;8.68;100.00;97676.19;5020511;28;1478;-70
2023/12/29 10:47:32;;;;;;;;;;;9.40;99.90;;;8.76;100.00;97668.19;5019294;28;1948;-70
2023/12/29 10:50:00;;;;;;;;;;;9.40;99.90;;;8.67;100.00;97677.09;5020688;28;1125;-70
2023/12/29 10:52:27;;;;;;;;;;;9.30;99.90;;;8.85;100.00;97687.72;5018109;28;1308;-70
2023/12/29 10:55:08;;;;;;;;;;;9.30;99.90;;;8.72;100.00;97656.25;5017514;28;1387;-71
2023/12/29 10:57:36;;;;;;;;;;;9.30;99.90;;;8.80;100.00;97669.75;5019467;28;5309;-70
2023/12/29 11:00:05;;;;;;;;;;;9.30;99.90;;;8.88;100.00;97682.44;5033375;28;1337;-70
2023/12/29 11:02:33;;;;;;;;;;;9.30;99.90;;;8.78;100.00;97668.94;5022485;28;1992;-70
2023/12/29 11:05:09;;;;;;;;;;;9.30;99.90;;;8.78;100.00;97619.78;5017203;28;1443;-71
2023/12/29 11:07:40;;;;;;;;;;;9.30;99.90;;;8.68;100.00;97645.13;5017756;28;1560;-70
2023/12/29 11:10:08;;;;;;;;;;;9.40;99.90;;;8.76;100.00;97655.25;5020441;28;1466;-70
2023/12/29 11:12:36;;;;;;;;;;;9.40;99.90;;;8.75;100.00;97649.19;5023478;28;1383;-70
2023/12/29 11:15:05;;;;;;;;;;;9.40;99.90;;;8.65;100.00;97634.06;5022282;28;3227;-71
2023/12/29 11:17:34;;;;;;;;;;;9.30;99.90;;;8.74;100.00;97663.06;5037033;28;1918;-71
2023/12/29 11:20:03;;;;;;;;;;;9.20;99.90;;;8.56;100.00;97680.03;5022539;28;1436;-70
2023/12/29 11:22:31;;;;;;;;;;;9.20;99.90;;;8.52;100.00;97656.91;5023341;28;1522;-70
2023/12/29 11:24:59;;;;;;;;;;;9.20;99.90;;;8.42;100.00;97656.38;5024996;28;1508;-70
2023/12/29 11:27:29;;;;;;;;;;;9.10;99.90;;;8.32;100.00;97676.47;5023838;28;1590;-70
2023/12/29 11:29:58;;;;;;;;;;;9.10;99.90;;;8.24;100.00;97638.84;5020300;28;2034;-70
2023/12/29 11:32:41;;;;;;;;;;;9.00;99.90;;;8.15;100.00;97658.06;5036800;28;1359;-70
2023/12/29 11:35:18;;;;;;;;;;;9.00;99.90;;;8.15;100.00;97679.59;5005044;28;1065;-70
2023/12/29 11:38:10;;;;;;;;;;;8.90;99.90;;;8.16;100.00;97673.53;5025447;28;1902;-70
2023/12/29 11:40:43;;;;;;;;;;;8.90;99.90;;;8.16;100.00;97695.94;5035979;28;1477;-70
2023/12/29 11:43:17;;;;;;;;;;;9.00;99.90;;;8.10;100.00;97689.22;5004223;28;2008;-69
2023/12/29 11:45:44;;;;;;;;;;;8.90;99.90;;;8.14;100.00;97705.47;5015603;28;1733;-70
2023/12/29 11:48:12;;;;;;;;;;;8.90;99.90;;;8.12;100.00;97702.13;5018785;28;1388;-70